createdAt,value
2023-04-04T00:00:46.287Z,-1.00
2023-04-04T00:03:13.862Z,-1.00
2023-04-04T00:05:41.877Z,-1.00
2023-04-04T00:08:09.443Z,-1.10
2023-04-04T00:10:36.977Z,-1.10
2023-04-04T00:13:05.788Z,-1.10
2023-04-04T00:15:34.836Z,-1.10
2023-04-04T00:18:04.279Z,-1.10
2023-04-04T00:20:32.354Z,-1.10
2023-04-04T00:23:00.832Z,-1.10
2023-04-04T00:25:28.430Z,-1.10
2023-04-04T00:27:56.494Z,-1.10
2023-04-04T00:30:23.951Z,-1.20
2023-04-04T00:32:51.985Z,-1.20
2023-04-04T00:35:19.677Z,-1.20
2023-04-04T00:37:47.329Z,-1.20
2023-04-04T00:40:15.133Z,-1.10
2023-04-04T00:42:42.738Z,-1.10
2023-04-04T00:45:11.435Z,-1.10
2023-04-04T00:47:40.043Z,-1.10
2023-04-04T00:50:08.758Z,-1.10
2023-04-04T00:52:36.317Z,-1.10
2023-04-04T00:55:05.649Z,-1.10
2023-04-04T00:57:34.817Z,-1.20
2023-04-04T01:00:07.865Z,-1.30
2023-04-04T01:02:36.401Z,-1.30
2023-04-04T01:05:04.698Z,-1.30
2023-04-04T01:07:33.874Z,-1.30
2023-04-04T01:10:05.942Z,-1.30
2023-04-04T01:12:34.749Z,-1.30
2023-04-04T01:15:02.390Z,-1.30
2023-04-04T01:17:30.451Z,-1.40
2023-04-04T01:20:11.353Z,-1.50
2023-04-04T01:22:41.922Z,-1.50
2023-04-04T01:25:09.908Z,-1.60
2023-04-04T01:27:37.458Z,-1.60
2023-04-04T01:30:06.987Z,-1.60
2023-04-04T01:32:47.596Z,-1.50
2023-04-04T01:35:43.671Z,-1.40
2023-04-04T01:39:01.863Z,-1.30
2023-04-04T01:41:33.894Z,-1.20
2023-04-04T01:44:01.741Z,-1.10
2023-04-04T01:46:30.200Z,-1.10
2023-04-04T01:48:58.262Z,-1.10
2023-04-04T01:51:26.048Z,-1.10
2023-04-04T01:53:53.628Z,-1.10
2023-04-04T01:56:21.215Z,-1.20
2023-04-04T01:58:48.909Z,-1.20
2023-04-04T02:01:16.918Z,-1.30
2023-04-04T02:03:44.445Z,-1.30
2023-04-04T02:06:12.092Z,-1.30
2023-04-04T02:08:39.678Z,-1.40
2023-04-04T02:11:07.394Z,-1.40
2023-04-04T02:13:34.905Z,-1.30
2023-04-04T02:16:02.505Z,-1.40
2023-04-04T02:18:30.131Z,-1.40
2023-04-04T02:20:57.971Z,-1.40
2023-04-04T02:23:26.084Z,-1.40
2023-04-04T02:25:53.669Z,-1.40
2023-04-04T02:28:21.596Z,-1.40
2023-04-04T02:30:49.203Z,-1.40
2023-04-04T02:33:17.334Z,-1.40
2023-04-04T02:35:44.869Z,-1.50
2023-04-04T02:38:12.518Z,-1.50
2023-04-04T02:40:42.610Z,-1.50
2023-04-04T02:43:10.593Z,-1.50
2023-04-04T02:45:38.676Z,-1.60
2023-04-04T02:48:07.796Z,-1.70
2023-04-04T02:50:35.427Z,-1.80
2023-04-04T02:53:04.192Z,-1.80
2023-04-04T02:55:32.000Z,-1.90
2023-04-04T02:58:01.989Z,-1.90
2023-04-04T03:00:29.744Z,-2.00
2023-04-04T03:02:58.554Z,-2.00
2023-04-04T03:05:27.720Z,-2.00
2023-04-04T03:07:59.319Z,-2.10
2023-04-04T03:10:31.990Z,-2.10
2023-04-04T03:12:59.981Z,-2.10
2023-04-04T03:15:27.954Z,-2.20
2023-04-04T03:17:55.702Z,-2.20
2023-04-04T03:20:23.312Z,-2.20
2023-04-04T03:22:50.948Z,-2.30
2023-04-04T03:25:18.513Z,-2.10
2023-04-04T03:27:46.332Z,-2.10
2023-04-04T03:30:14.018Z,-2.00
2023-04-04T03:32:41.647Z,-1.90
2023-04-04T03:35:09.562Z,-1.80
2023-04-04T03:37:37.366Z,-1.80
2023-04-04T03:40:05.456Z,-1.80
2023-04-04T03:42:36.174Z,-1.80
2023-04-04T03:45:03.887Z,-1.90
2023-04-04T03:47:31.474Z,-2.00
2023-04-04T03:49:59.082Z,-2.10
2023-04-04T03:52:26.630Z,-2.20
2023-04-04T03:54:54.147Z,-2.20
2023-04-04T03:57:21.689Z,-2.20
2023-04-04T03:59:49.258Z,-2.10
2023-04-04T04:02:16.862Z,-2.10
2023-04-04T04:04:44.486Z,-2.10
2023-04-04T04:07:12.208Z,-2.20
2023-04-04T04:09:40.197Z,-2.20
2023-04-04T04:12:08.248Z,-2.10
2023-04-04T04:14:35.726Z,-2.10
2023-04-04T04:17:03.424Z,-2.10
2023-04-04T04:19:30.997Z,-2.10
2023-04-04T04:21:58.566Z,-2.10
2023-04-04T04:24:26.370Z,-2.00
2023-04-04T04:26:53.915Z,-2.10
2023-04-04T04:29:21.655Z,-2.10
2023-04-04T04:31:49.246Z,-2.10
2023-04-04T04:34:16.800Z,-2.10
2023-04-04T04:36:44.307Z,-2.10
2023-04-04T04:39:11.787Z,-2.20
2023-04-04T04:41:39.391Z,-2.10
2023-04-04T04:44:06.952Z,-2.10
2023-04-04T04:46:34.498Z,-2.20
2023-04-04T04:49:02.062Z,-2.20
2023-04-04T04:51:29.642Z,-2.10
2023-04-04T04:53:57.428Z,-2.00
2023-04-04T04:56:25.031Z,-1.90
2023-04-04T04:58:52.577Z,-1.90
2023-04-04T05:01:20.201Z,-1.90
2023-04-04T05:03:48.019Z,-1.80
2023-04-04T05:06:15.903Z,-1.80
2023-04-04T05:08:43.495Z,-1.70
2023-04-04T05:11:11.049Z,-1.70
2023-04-04T05:13:38.747Z,-1.70
2023-04-04T05:16:06.548Z,-1.60
2023-04-04T05:18:34.184Z,-1.50
2023-04-04T05:21:01.692Z,-1.50
2023-04-04T05:23:29.243Z,-1.50
2023-04-04T05:25:56.774Z,-1.40
2023-04-04T05:28:24.335Z,-1.30
2023-04-04T05:30:53.078Z,-1.30
2023-04-04T05:33:20.669Z,-1.20
2023-04-04T05:35:48.541Z,-1.10
2023-04-04T05:38:16.165Z,-1.10
2023-04-04T05:40:45.544Z,-1.10
2023-04-04T05:43:13.352Z,-1.00
2023-04-04T05:45:42.051Z,-1.00
2023-04-04T05:48:09.752Z,-0.90
2023-04-04T05:50:37.506Z,-0.80
2023-04-04T05:53:05.074Z,-0.70
2023-04-04T05:55:32.880Z,-0.70
2023-04-04T05:58:00.425Z,-0.70
2023-04-04T06:00:28.117Z,-0.70
2023-04-04T06:02:58.901Z,-0.60
2023-04-04T06:05:26.532Z,-0.60
2023-04-04T06:07:54.039Z,-0.60
2023-04-04T06:10:21.757Z,-0.50
2023-04-04T06:12:49.325Z,-0.50
2023-04-04T06:15:17.352Z,-0.50
2023-04-04T06:17:45.742Z,-0.50
2023-04-04T06:20:13.315Z,-0.50
2023-04-04T06:22:41.658Z,-0.40
2023-04-04T06:25:10.620Z,-0.30
2023-04-04T06:27:39.873Z,-0.20
2023-04-04T06:30:11.016Z,-0.20
2023-04-04T06:32:40.199Z,-0.10
2023-04-04T06:35:08.571Z,-0.10
2023-04-04T06:37:36.110Z,0.00
2023-04-04T06:40:04.460Z,-0.10
2023-04-04T06:42:31.965Z,-0.10
2023-04-04T06:44:59.676Z,-0.10
2023-04-04T06:47:27.348Z,0.00
2023-04-04T06:49:54.884Z,0.10
2023-04-04T06:52:22.447Z,0.10
2023-04-04T06:54:51.150Z,0.20
2023-04-04T06:57:18.816Z,0.30
2023-04-04T06:59:46.407Z,0.30
2023-04-04T07:02:13.911Z,0.30
2023-04-04T07:04:42.121Z,0.30
2023-04-04T07:07:09.602Z,0.30
2023-04-04T07:09:37.178Z,0.50
2023-04-04T07:12:05.669Z,0.50
2023-04-04T07:14:33.258Z,0.60
2023-04-04T07:17:03.676Z,0.50
2023-04-04T07:19:35.615Z,0.50
2023-04-04T07:22:03.188Z,0.50
2023-04-04T07:24:31.193Z,0.50
2023-04-04T07:26:58.782Z,0.60
2023-04-04T07:29:26.337Z,0.60
2023-04-04T07:31:54.489Z,0.70
2023-04-04T07:34:22.132Z,0.90
2023-04-04T07:36:49.678Z,0.90
2023-04-04T07:39:17.387Z,0.80
2023-04-04T07:41:45.450Z,0.80
2023-04-04T07:44:13.189Z,0.80
2023-04-04T07:46:40.972Z,1.00
2023-04-04T07:49:08.896Z,1.10
2023-04-04T07:51:37.040Z,1.00
2023-04-04T07:54:04.636Z,0.90
2023-04-04T07:56:32.237Z,0.90
2023-04-04T07:58:59.942Z,0.90
2023-04-04T08:01:27.512Z,0.80
2023-04-04T08:03:55.506Z,0.70
2023-04-04T08:06:23.616Z,0.80
2023-04-04T08:08:52.564Z,1.00
2023-04-04T08:11:20.274Z,0.90
2023-04-04T08:13:47.970Z,0.70
2023-04-04T08:16:15.898Z,0.80
2023-04-04T08:18:43.701Z,0.70
2023-04-04T08:21:11.280Z,0.80
2023-04-04T08:23:38.846Z,0.90
2023-04-04T08:26:06.619Z,1.00
2023-04-04T08:28:35.133Z,1.00
2023-04-04T08:31:04.574Z,1.00
2023-04-04T08:33:44.636Z,1.20
2023-04-04T08:36:14.698Z,1.30
2023-04-04T08:38:42.323Z,1.30
2023-04-04T08:41:12.117Z,1.30
2023-04-04T08:43:42.321Z,1.30
2023-04-04T08:46:12.997Z,1.50
2023-04-04T08:48:43.953Z,1.50
2023-04-04T08:51:14.272Z,1.30
2023-04-04T08:53:41.998Z,1.40
2023-04-04T08:56:10.382Z,1.40
2023-04-04T08:58:41.685Z,1.50
2023-04-04T09:01:09.592Z,1.50
2023-04-04T09:03:38.171Z,1.50
2023-04-04T09:06:06.633Z,1.40
2023-04-04T09:08:35.792Z,1.40
2023-04-04T09:11:04.919Z,1.30
2023-04-04T09:13:32.585Z,1.20
2023-04-04T09:16:01.382Z,1.10
2023-04-04T09:18:30.127Z,1.10
2023-04-04T09:20:57.700Z,1.30
2023-04-04T09:23:26.192Z,1.50
2023-04-04T09:26:03.664Z,1.70
2023-04-04T09:28:34.249Z,1.80
2023-04-04T09:31:06.116Z,2.00
2023-04-04T09:33:34.709Z,2.00
2023-04-04T09:36:13.343Z,2.00
2023-04-04T09:38:49.580Z,1.90
2023-04-04T09:41:18.949Z,2.00
2023-04-04T09:43:47.110Z,2.00
2023-04-04T09:46:16.526Z,2.00
2023-04-04T09:48:53.246Z,2.00
2023-04-04T09:51:20.780Z,2.20
2023-04-04T09:53:48.996Z,2.10
2023-04-04T09:56:17.861Z,2.10
2023-04-04T09:59:02.504Z,1.90
2023-04-04T10:01:32.146Z,1.60
2023-04-04T10:03:59.990Z,1.80
2023-04-04T10:06:28.188Z,1.80
2023-04-04T10:08:58.629Z,2.00
2023-04-04T10:11:32.531Z,2.20
2023-04-04T10:14:01.633Z,2.40
2023-04-04T10:16:34.031Z,2.30
2023-04-04T10:19:03.173Z,2.10
2023-04-04T10:21:31.633Z,2.10
2023-04-04T10:24:02.272Z,2.20
2023-04-04T10:26:29.976Z,2.60
2023-04-04T10:28:58.304Z,2.50
2023-04-04T10:31:27.564Z,2.70
2023-04-04T10:34:26.873Z,2.60
2023-04-04T10:37:27.211Z,2.60
2023-04-04T10:40:10.412Z,2.90
2023-04-04T10:42:47.133Z,3.00
2023-04-04T10:45:21.296Z,3.10
2023-04-04T10:47:51.106Z,2.70
2023-04-04T10:50:21.121Z,2.70
2023-04-04T10:52:49.390Z,2.50
2023-04-04T10:55:17.849Z,2.40
2023-04-04T10:57:51.089Z,2.30
2023-04-04T11:00:20.571Z,2.50
2023-04-04T11:02:56.000Z,2.50
2023-04-04T11:05:30.802Z,2.60
2023-04-04T11:08:08.183Z,2.70
2023-04-04T11:10:44.877Z,2.60
2023-04-04T11:13:24.484Z,2.40
2023-04-04T11:16:08.035Z,2.20
2023-04-04T11:18:41.838Z,2.20
2023-04-04T11:21:26.686Z,2.00
2023-04-04T11:24:15.996Z,2.00
2023-04-04T11:26:45.652Z,2.20
2023-04-04T11:29:23.835Z,2.50
2023-04-04T11:31:52.075Z,2.50
2023-04-04T11:34:33.474Z,2.80
2023-04-04T11:37:20.109Z,2.90
2023-04-04T11:39:50.956Z,2.90
2023-04-04T11:42:21.794Z,2.80
2023-04-04T11:44:52.533Z,2.60
2023-04-04T11:47:24.368Z,2.40
2023-04-04T11:49:55.064Z,2.40
2023-04-04T11:52:24.209Z,2.40
2023-04-04T11:54:52.857Z,2.40
2023-04-04T11:57:22.062Z,2.60
2023-04-04T11:59:52.055Z,2.70
2023-04-04T12:02:29.942Z,3.10
2023-04-04T12:04:59.896Z,3.70
2023-04-04T12:07:29.740Z,3.20
2023-04-04T12:09:57.937Z,3.00
2023-04-04T12:12:27.809Z,2.60
2023-04-04T12:15:06.306Z,2.30
2023-04-04T12:17:44.473Z,2.30
2023-04-04T12:20:13.301Z,2.30
2023-04-04T12:22:41.408Z,2.30
2023-04-04T12:25:10.346Z,2.60
2023-04-04T12:27:39.605Z,2.80
2023-04-04T12:30:15.887Z,2.70
2023-04-04T12:32:48.271Z,3.00
2023-04-04T12:35:16.540Z,3.20
2023-04-04T12:38:07.828Z,3.40
2023-04-04T12:40:38.775Z,3.30
2023-04-04T12:43:08.368Z,3.30
2023-04-04T12:45:44.389Z,3.20
2023-04-04T12:48:18.408Z,3.20
2023-04-04T12:50:58.053Z,3.10
2023-04-04T12:53:29.751Z,4.00
2023-04-04T12:56:04.075Z,4.60
2023-04-04T12:58:35.890Z,4.30
2023-04-04T13:01:05.413Z,3.80
2023-04-04T13:03:35.031Z,3.50
2023-04-04T13:06:03.015Z,4.80
2023-04-04T13:08:31.589Z,4.20
2023-04-04T13:11:05.606Z,3.60
2023-04-04T13:13:43.481Z,3.40
2023-04-04T13:16:37.969Z,3.40
2023-04-04T13:19:06.446Z,3.20
2023-04-04T13:21:36.128Z,2.90
2023-04-04T13:24:04.266Z,2.90
2023-04-04T13:26:32.211Z,3.00
2023-04-04T13:28:59.957Z,3.00
2023-04-04T13:31:27.478Z,3.00
2023-04-04T13:33:55.185Z,2.80
2023-04-04T13:36:22.697Z,2.70
2023-04-04T13:38:50.446Z,2.60
2023-04-04T13:41:18.196Z,2.60
2023-04-04T13:43:46.265Z,2.80
2023-04-04T13:46:13.825Z,2.90
2023-04-04T13:48:42.414Z,2.90
2023-04-04T13:51:09.974Z,3.00
2023-04-04T13:53:37.566Z,3.00
2023-04-04T13:58:35.795Z,2.90
2023-04-04T14:01:07.363Z,2.90
2023-04-04T14:03:36.577Z,2.90
2023-04-04T14:06:10.340Z,2.80
2023-04-04T14:08:39.501Z,2.70
2023-04-04T14:11:07.285Z,2.70
2023-04-04T14:13:36.502Z,2.70
2023-04-04T14:16:04.665Z,2.80
2023-04-04T14:18:32.610Z,2.90
2023-04-04T14:21:00.973Z,3.30
2023-04-04T14:23:30.734Z,3.50
2023-04-04T14:25:58.704Z,3.50
2023-04-04T14:28:27.401Z,3.20
2023-04-04T14:30:55.000Z,2.90
2023-04-04T14:33:22.583Z,2.80
2023-04-04T14:35:51.274Z,2.80
2023-04-04T14:38:18.909Z,2.70
2023-04-04T14:40:47.133Z,2.60
2023-04-04T14:43:14.952Z,2.60
2023-04-04T14:45:42.805Z,2.60
2023-04-04T14:48:10.870Z,2.70
2023-04-04T14:50:38.628Z,2.90
2023-04-04T14:53:06.865Z,3.20
2023-04-04T14:55:34.569Z,3.30
2023-04-04T14:58:03.205Z,4.30
2023-04-04T15:00:31.987Z,5.70
2023-04-04T15:02:59.940Z,7.40
2023-04-04T15:05:27.877Z,7.90
2023-04-04T15:07:56.923Z,8.40
2023-04-04T15:10:25.170Z,7.50
2023-04-04T15:12:52.934Z,6.50
2023-04-04T15:15:22.407Z,4.80
2023-04-04T15:17:52.012Z,4.10
2023-04-04T15:20:19.724Z,3.70
2023-04-04T15:22:47.333Z,3.50
2023-04-04T15:25:14.920Z,4.00
2023-04-04T15:27:42.513Z,3.90
2023-04-04T15:30:12.509Z,4.90
2023-04-04T15:32:40.095Z,6.30
2023-04-04T15:35:19.224Z,6.30
2023-04-04T15:37:49.260Z,6.30
2023-04-04T15:40:18.116Z,5.70
2023-04-04T15:42:46.780Z,4.90
2023-04-04T15:45:15.733Z,4.70
2023-04-04T15:47:45.253Z,4.70
2023-04-04T15:50:13.763Z,4.50
2023-04-04T15:52:41.941Z,4.40
2023-04-04T15:55:17.327Z,4.10
2023-04-04T15:57:45.808Z,4.10
2023-04-04T16:00:15.040Z,4.70
2023-04-04T16:02:43.111Z,5.30
2023-04-04T16:05:11.147Z,4.80
2023-04-04T16:07:38.855Z,4.40
2023-04-04T16:10:08.266Z,4.30
2023-04-04T16:12:35.883Z,4.10
2023-04-04T16:15:05.602Z,4.60
2023-04-04T16:17:33.552Z,4.60
2023-04-04T16:20:01.325Z,4.20
2023-04-04T16:22:28.905Z,3.90
2023-04-04T16:24:56.484Z,3.70
2023-04-04T16:27:24.955Z,3.60
2023-04-04T16:29:52.798Z,3.50
2023-04-04T16:32:21.253Z,3.40
2023-04-04T16:34:49.638Z,3.30
2023-04-04T16:37:17.435Z,3.10
2023-04-04T16:39:47.233Z,2.90
2023-04-04T16:42:19.717Z,2.90
2023-04-04T16:44:48.180Z,2.90
2023-04-04T16:47:16.354Z,2.90
2023-04-04T16:49:44.117Z,2.90
2023-04-04T16:52:11.997Z,2.90
2023-04-04T16:54:39.653Z,2.80
2023-04-04T16:57:07.813Z,2.70
2023-04-04T16:59:38.636Z,2.50
2023-04-04T17:02:11.064Z,2.30
2023-04-04T17:04:41.630Z,2.20
2023-04-04T17:07:09.670Z,2.10
2023-04-04T17:09:37.622Z,2.10
2023-04-04T17:12:05.633Z,1.90
2023-04-04T17:14:33.704Z,1.80
2023-04-04T17:17:01.481Z,1.70
2023-04-04T17:19:31.862Z,1.50
2023-04-04T17:21:59.682Z,1.40
2023-04-04T17:24:28.107Z,1.20
2023-04-04T17:26:58.441Z,1.10
2023-04-04T17:29:29.401Z,1.10
2023-04-04T17:31:57.975Z,1.00
2023-04-04T17:34:26.672Z,0.90
2023-04-04T17:36:56.035Z,0.70
2023-04-04T17:39:24.037Z,0.60
2023-04-04T17:41:52.888Z,0.60
2023-04-04T17:44:21.899Z,0.60
2023-04-04T17:46:49.435Z,0.50
2023-04-04T17:49:20.475Z,0.40
2023-04-04T17:51:49.932Z,0.30
2023-04-04T17:54:18.037Z,0.40
2023-04-04T17:56:47.252Z,0.40
2023-04-04T17:59:16.727Z,0.40
2023-04-04T18:01:44.928Z,0.50
2023-04-04T18:04:13.096Z,0.50
2023-04-04T18:06:41.854Z,0.40
2023-04-04T18:09:10.896Z,0.50
2023-04-04T18:11:39.858Z,0.40
2023-04-04T18:14:07.583Z,0.30
2023-04-04T18:16:39.836Z,0.30
2023-04-04T18:19:09.829Z,0.30
2023-04-04T18:21:38.677Z,0.20
2023-04-04T18:24:08.120Z,0.20
2023-04-04T18:26:35.672Z,0.10
2023-04-04T18:29:03.453Z,0.10
2023-04-04T18:31:31.026Z,0.00
2023-04-04T18:33:58.552Z,0.00
2023-04-04T18:36:26.896Z,0.00
2023-04-04T18:38:54.416Z,0.00
2023-04-04T18:41:22.002Z,0.00
2023-04-04T18:43:49.656Z,0.00
2023-04-04T18:46:17.255Z,0.00
2023-04-04T18:48:44.781Z,0.00
2023-04-04T18:51:12.565Z,0.00
2023-04-04T18:53:40.096Z,-0.10
2023-04-04T18:56:07.653Z,-0.10
2023-04-04T18:58:36.503Z,-0.10
2023-04-04T19:01:04.790Z,0.00
2023-04-04T19:03:41.523Z,0.00
2023-04-04T19:06:12.769Z,0.10
2023-04-04T19:08:42.266Z,0.10
2023-04-04T19:11:12.501Z,0.20
2023-04-04T19:13:40.149Z,0.20
2023-04-04T19:16:07.829Z,0.20
2023-04-04T19:18:35.454Z,0.20
2023-04-04T19:21:03.070Z,0.10
2023-04-04T19:23:30.953Z,0.10
2023-04-04T19:26:02.240Z,0.10
2023-04-04T19:28:30.294Z,0.00
2023-04-04T19:30:57.889Z,0.00
2023-04-04T19:33:26.841Z,0.10
2023-04-04T19:36:12.044Z,0.10
2023-04-04T19:38:42.817Z,0.10
2023-04-04T19:41:36.325Z,0.10
2023-04-04T19:44:06.965Z,0.10
2023-04-04T19:46:35.328Z,0.10
2023-04-04T19:49:11.929Z,0.10
2023-04-04T19:51:49.308Z,0.10
2023-04-04T19:54:19.562Z,0.00
2023-04-04T19:56:49.767Z,-0.10
2023-04-04T20:00:09.470Z,0.00
2023-04-04T20:02:54.358Z,0.00
2023-04-04T20:05:32.518Z,-0.10
2023-04-04T20:08:01.687Z,-0.20
2023-04-04T20:10:42.034Z,-0.20
2023-04-04T20:13:10.719Z,-0.10
2023-04-04T20:15:47.839Z,0.10
2023-04-04T20:18:24.934Z,0.20
2023-04-04T20:21:07.125Z,0.40
2023-04-04T20:23:53.473Z,0.30
2023-04-04T20:26:59.830Z,0.30
2023-04-04T20:29:34.500Z,0.40
2023-04-04T20:32:05.801Z,0.40
2023-04-04T20:34:42.985Z,0.40
2023-04-04T20:37:22.967Z,0.40
2023-04-04T20:40:13.108Z,0.40
2023-04-04T20:42:41.147Z,0.40
2023-04-04T20:45:33.098Z,0.40
2023-04-04T20:48:06.890Z,0.30
2023-04-04T20:50:35.626Z,0.20
2023-04-04T20:53:05.086Z,0.30
2023-04-04T20:55:35.228Z,0.30
2023-04-04T20:58:29.889Z,0.30
2023-04-04T21:01:00.297Z,0.30
2023-04-04T21:03:31.397Z,0.30
2023-04-04T21:06:15.359Z,0.30
2023-04-04T21:08:48.896Z,0.30
2023-04-04T21:11:30.308Z,0.30
2023-04-04T21:13:57.910Z,0.30
2023-04-04T21:16:27.949Z,0.30
2023-04-04T21:19:00.869Z,0.30
2023-04-04T21:21:30.097Z,0.30
2023-04-04T21:24:00.279Z,0.20
2023-04-04T21:26:38.478Z,0.20
2023-04-04T21:29:23.335Z,0.20
2023-04-04T21:31:54.218Z,0.30
2023-04-04T21:34:24.894Z,0.20
2023-04-04T21:36:56.213Z,0.10
2023-04-04T21:39:30.934Z,0.10
2023-04-04T21:42:06.011Z,0.00
2023-04-04T21:44:35.914Z,-0.10
2023-04-04T21:47:03.447Z,-0.10
2023-04-04T21:49:30.973Z,0.00
2023-04-04T21:51:58.887Z,0.00
2023-04-04T21:54:26.425Z,0.00
2023-04-04T21:56:54.215Z,0.00
2023-04-04T21:59:22.029Z,0.00
2023-04-04T22:01:51.571Z,0.00
2023-04-04T22:04:19.478Z,-0.10
2023-04-04T22:06:47.006Z,-0.20
2023-04-04T22:09:16.189Z,-0.20
2023-04-04T22:11:44.671Z,-0.30
2023-04-04T22:14:18.168Z,-0.40
2023-04-04T22:16:46.289Z,-0.50
2023-04-04T22:19:14.072Z,-0.50
2023-04-04T22:21:46.982Z,-0.60
2023-04-04T22:24:15.914Z,-0.60
2023-04-04T22:26:45.916Z,-0.70
2023-04-04T22:29:13.745Z,-0.70
2023-04-04T22:31:41.674Z,-0.80
2023-04-04T22:34:10.468Z,-0.80
2023-04-04T22:36:40.027Z,-0.90
2023-04-04T22:39:07.646Z,-0.90
2023-04-04T22:41:35.170Z,-0.90
2023-04-04T22:44:03.508Z,-1.00
2023-04-04T22:46:32.346Z,-1.00
2023-04-04T22:49:07.189Z,-1.00
2023-04-04T22:51:44.144Z,-1.00
2023-04-04T22:54:16.603Z,-1.00
2023-04-04T22:56:44.595Z,-0.90
2023-04-04T22:59:12.769Z,-0.80
2023-04-04T23:01:40.727Z,-0.70
2023-04-04T23:04:08.653Z,-0.70
2023-04-04T23:06:36.513Z,-0.60
2023-04-04T23:09:04.403Z,-0.60
2023-04-04T23:11:32.012Z,-0.50
2023-04-04T23:14:00.597Z,-0.50
2023-04-04T23:16:29.112Z,-0.40
2023-04-04T23:18:57.280Z,-0.40
2023-04-04T23:21:25.189Z,-0.30
2023-04-04T23:23:52.721Z,-0.30
2023-04-04T23:26:20.327Z,-0.40
2023-04-04T23:28:48.096Z,-0.40
2023-04-04T23:31:17.099Z,-0.50
2023-04-04T23:33:44.765Z,-0.60
2023-04-04T23:36:12.372Z,-0.70
2023-04-04T23:38:39.848Z,-0.80
2023-04-04T23:41:07.789Z,-0.90
2023-04-04T23:43:36.221Z,-1.00
2023-04-04T23:46:04.093Z,-1.10
2023-04-04T23:48:32.298Z,-1.20
2023-04-04T23:51:01.892Z,-1.20
2023-04-04T23:53:30.020Z,-1.20
2023-04-04T23:55:57.625Z,-1.20
2023-04-04T23:58:25.184Z,-1.30
